createdAt,value
2017-11-18T00:01:02.837Z,4.56
2017-11-18T00:03:31.888Z,4.56
2017-11-18T00:06:00.152Z,4.52
2017-11-18T00:08:28.448Z,4.61
2017-11-18T00:10:56.732Z,4.54
2017-11-18T00:13:25.013Z,4.62
2017-11-18T00:15:53.254Z,4.66
2017-11-18T00:18:21.526Z,4.66
2017-11-18T00:20:49.768Z,4.64
2017-11-18T00:23:18.015Z,4.64
2017-11-18T00:25:46.270Z,4.65
2017-11-18T00:28:14.514Z,4.64
2017-11-18T00:30:42.767Z,4.64
2017-11-18T00:33:11.784Z,4.63
2017-11-18T00:35:40.030Z,4.59
2017-11-18T00:38:08.282Z,4.59
2017-11-18T00:40:36.534Z,4.60
2017-11-18T00:43:04.781Z,4.58
2017-11-18T00:45:33.028Z,4.62
2017-11-18T00:48:02.040Z,4.65
2017-11-18T00:50:30.288Z,4.67
2017-11-18T00:52:59.297Z,4.62
2017-11-18T00:55:27.553Z,4.59
2017-11-18T00:57:56.567Z,4.66
2017-11-18T01:00:24.819Z,4.69
2017-11-18T01:02:53.834Z,4.78
2017-11-18T01:05:22.082Z,4.63
2017-11-18T01:07:50.330Z,4.57
2017-11-18T01:10:18.576Z,4.61
2017-11-18T01:12:46.827Z,4.53
2017-11-18T01:15:15.830Z,4.55
2017-11-18T01:17:44.087Z,4.43
2017-11-18T01:20:13.103Z,4.55
2017-11-18T01:22:41.357Z,4.49
2017-11-18T01:25:10.363Z,4.43
2017-11-18T01:27:38.607Z,4.45
2017-11-18T01:30:06.853Z,4.44
2017-11-18T01:32:35.091Z,4.49
2017-11-18T01:35:03.341Z,4.50
2017-11-18T01:37:31.573Z,4.36
2017-11-18T01:39:59.823Z,4.44
2017-11-18T01:42:28.066Z,4.37
2017-11-18T01:44:56.314Z,4.34
2017-11-18T01:47:24.559Z,4.42
2017-11-18T01:49:52.810Z,4.44
2017-11-18T01:52:21.823Z,4.36
2017-11-18T01:54:50.081Z,4.38
2017-11-18T01:57:19.088Z,4.35
2017-11-18T01:59:47.335Z,4.36
2017-11-18T02:02:49.051Z,4.33
2017-11-18T02:05:17.300Z,4.35
2017-11-18T02:07:45.538Z,4.33
2017-11-18T02:18:53.042Z,4.37
2017-11-18T02:21:21.304Z,4.40
2017-11-18T02:23:49.540Z,4.29
2017-11-18T02:26:18.557Z,4.38
2017-11-18T02:28:46.805Z,4.33
2017-11-18T02:31:15.058Z,4.45
2017-11-18T02:33:43.301Z,4.40
2017-11-18T02:36:11.558Z,4.41
2017-11-18T02:38:39.824Z,4.30
2017-11-18T02:41:08.056Z,4.35
2017-11-18T02:43:37.065Z,4.41
2017-11-18T02:46:05.310Z,4.34
2017-11-18T02:48:33.558Z,4.44
2017-11-18T02:51:01.810Z,4.43
2017-11-18T02:53:30.815Z,4.31
2017-11-18T02:55:59.833Z,4.37
2017-11-18T02:58:28.070Z,4.38
2017-11-18T03:00:57.089Z,4.42
2017-11-18T03:03:25.331Z,4.36
2017-11-18T03:05:54.352Z,4.27
2017-11-18T03:08:22.604Z,4.22
2017-11-18T03:10:51.620Z,4.07
2017-11-18T03:13:19.863Z,3.99
2017-11-18T03:15:48.120Z,3.91
2017-11-18T03:18:16.364Z,3.85
2017-11-18T03:20:44.617Z,3.81
2017-11-18T03:23:12.854Z,3.76
2017-11-18T03:25:41.103Z,3.75
2017-11-18T03:28:09.360Z,3.67
2017-11-18T03:30:37.609Z,3.70
2017-11-18T03:33:06.616Z,3.65
2017-11-18T03:35:34.866Z,3.68
2017-11-18T03:38:03.888Z,3.69
2017-11-18T03:40:32.143Z,3.70
2017-11-18T03:43:01.156Z,3.69
2017-11-18T03:45:29.408Z,3.62
2017-11-18T03:47:58.417Z,3.51
2017-11-18T03:50:26.672Z,3.52
2017-11-18T03:52:55.688Z,3.58
2017-11-18T03:55:23.936Z,3.53
2017-11-18T03:57:52.949Z,3.47
2017-11-18T04:00:24.623Z,3.48
2017-11-18T04:02:52.871Z,3.45
2017-11-18T04:05:21.884Z,3.43
2017-11-18T04:07:50.137Z,3.35
2017-11-18T04:10:19.170Z,3.45
2017-11-18T04:12:47.410Z,3.50
2017-11-18T04:15:15.654Z,3.55
2017-11-18T04:17:43.908Z,3.54
2017-11-18T04:20:12.149Z,3.49
2017-11-18T04:22:40.397Z,3.53
2017-11-18T04:25:09.411Z,3.49
2017-11-18T04:27:37.662Z,3.47
2017-11-18T04:30:05.932Z,3.48
2017-11-18T04:32:34.188Z,3.54
2017-11-18T04:35:02.433Z,3.56
2017-11-18T04:37:30.683Z,3.52
2017-11-18T04:39:59.685Z,3.51
2017-11-18T04:42:27.940Z,3.46
2017-11-18T04:44:56.938Z,3.43
2017-11-18T04:47:25.965Z,3.45
2017-11-18T04:49:54.203Z,3.43
2017-11-18T04:52:23.233Z,3.49
2017-11-18T04:54:51.492Z,3.47
2017-11-18T04:57:19.733Z,3.38
2017-11-18T04:59:47.971Z,3.42
2017-11-18T05:02:16.210Z,3.39
2017-11-18T05:04:44.456Z,3.37
2017-11-18T05:07:12.720Z,3.33
2017-11-18T05:09:40.973Z,3.38
2017-11-18T05:12:09.221Z,3.35
2017-11-18T05:14:37.521Z,3.33
2017-11-18T05:17:05.759Z,3.29
2017-11-18T05:19:34.017Z,3.18
2017-11-18T05:22:02.261Z,3.23
2017-11-18T05:24:30.520Z,3.15
2017-11-18T05:26:58.771Z,3.13
2017-11-18T05:29:27.030Z,3.07
2017-11-18T05:31:56.050Z,3.24
2017-11-18T05:34:24.293Z,3.17
2017-11-18T05:36:53.325Z,3.28
2017-11-18T05:39:21.588Z,3.26
2017-11-18T05:41:49.840Z,3.24
2017-11-18T05:44:18.859Z,3.14
2017-11-18T05:46:47.116Z,3.16
2017-11-18T05:49:16.115Z,3.18
2017-11-18T05:51:44.378Z,3.12
2017-11-18T05:54:13.382Z,3.11
2017-11-18T05:56:41.638Z,3.07
2017-11-18T05:59:10.653Z,2.96
2017-11-18T06:01:38.903Z,2.91
2017-11-18T06:04:07.924Z,2.88
2017-11-18T06:06:36.180Z,2.83
2017-11-18T06:09:05.201Z,2.85
2017-11-18T06:11:33.465Z,2.85
2017-11-18T06:14:01.709Z,2.77
2017-11-18T06:16:29.977Z,2.83
2017-11-18T06:18:58.235Z,2.88
2017-11-18T06:21:26.477Z,2.90
2017-11-18T06:23:54.721Z,2.87
2017-11-18T06:26:23.741Z,2.84
2017-11-18T06:28:52.000Z,2.83
2017-11-18T06:31:21.007Z,2.79
2017-11-18T06:33:49.264Z,2.82
2017-11-18T06:36:18.277Z,2.84
2017-11-18T06:38:46.540Z,2.87
2017-11-18T06:41:14.796Z,2.84
2017-11-18T06:43:43.823Z,2.72
2017-11-18T06:46:12.094Z,2.84
2017-11-18T06:48:41.113Z,2.74
2017-11-18T06:51:09.363Z,2.88
2017-11-18T06:53:37.614Z,2.94
2017-11-18T06:56:06.630Z,2.96
2017-11-18T06:58:34.892Z,2.97
2017-11-18T07:01:03.913Z,2.98
2017-11-18T07:03:32.164Z,2.97
2017-11-18T07:06:01.172Z,2.99
2017-11-18T07:08:29.443Z,3.04
2017-11-18T07:10:57.701Z,3.00
2017-11-18T07:13:25.928Z,3.07
2017-11-18T07:15:54.178Z,3.06
2017-11-18T07:18:22.412Z,3.19
2017-11-18T07:20:50.657Z,3.24
2017-11-18T07:23:18.896Z,3.30
2017-11-18T07:25:47.155Z,3.34
2017-11-18T07:28:16.168Z,3.42
2017-11-18T07:30:44.420Z,3.38
2017-11-18T07:33:13.420Z,3.32
2017-11-18T07:35:42.439Z,3.28
2017-11-18T07:38:10.684Z,3.25
2017-11-18T07:40:39.699Z,3.37
2017-11-18T07:43:07.940Z,3.44
2017-11-18T07:45:36.196Z,3.37
2017-11-18T07:48:04.454Z,3.52
2017-11-18T07:50:32.700Z,3.47
2017-11-18T07:53:00.951Z,3.41
2017-11-18T07:55:29.965Z,3.42
2017-11-18T07:57:58.975Z,3.44
2017-11-18T08:00:27.224Z,3.49
2017-11-18T08:02:55.479Z,3.59
2017-11-18T08:05:23.723Z,3.41
2017-11-18T08:07:51.967Z,3.56
2017-11-18T08:10:20.220Z,3.34
2017-11-18T08:12:49.232Z,3.37
2017-11-18T08:15:17.476Z,3.50
2017-11-18T08:17:46.496Z,3.54
2017-11-18T08:20:14.748Z,3.58
2017-11-18T08:22:43.756Z,3.52
2017-11-18T08:25:12.000Z,3.53
2017-11-18T08:27:40.252Z,3.51
2017-11-18T08:30:08.506Z,3.54
2017-11-18T08:32:36.755Z,3.53
2017-11-18T08:35:05.012Z,3.46
2017-11-18T08:37:34.040Z,3.46
2017-11-18T08:40:02.295Z,3.63
2017-11-18T08:42:30.540Z,3.46
2017-11-18T08:44:58.787Z,3.57
2017-11-18T08:47:27.041Z,3.74
2017-11-18T08:49:56.022Z,3.87
2017-11-18T08:52:24.275Z,4.03
2017-11-18T08:54:53.290Z,4.08
2017-11-18T08:57:21.541Z,4.25
2017-11-18T08:59:49.784Z,4.17
2017-11-18T09:02:18.057Z,3.88
2017-11-18T09:04:46.303Z,3.87
2017-11-18T09:07:14.548Z,3.97
2017-11-18T09:09:43.574Z,3.96
2017-11-18T09:12:11.818Z,3.85
2017-11-18T09:14:40.842Z,3.91
2017-11-18T09:17:09.084Z,4.09
2017-11-18T09:19:38.101Z,4.17
2017-11-18T09:22:06.344Z,4.58
2017-11-18T09:24:34.591Z,4.74
2017-11-18T09:27:02.840Z,4.65
2017-11-18T09:29:31.092Z,4.56
2017-11-18T09:32:00.102Z,4.72
2017-11-18T09:34:28.366Z,5.23
2017-11-18T09:36:56.611Z,4.70
2017-11-18T09:39:24.859Z,4.77
2017-11-18T09:41:53.108Z,4.85
2017-11-18T09:44:21.372Z,5.34
2017-11-18T09:46:49.609Z,5.57
2017-11-18T09:49:17.851Z,5.78
2017-11-18T09:51:46.119Z,5.67
2017-11-18T09:54:14.355Z,5.33
2017-11-18T09:56:43.367Z,5.11
2017-11-18T09:59:11.612Z,5.45
2017-11-18T10:01:39.862Z,5.29
2017-11-18T10:04:08.103Z,5.07
2017-11-18T10:06:36.350Z,4.88
2017-11-18T10:09:05.354Z,5.38
2017-11-18T10:11:33.612Z,5.59
2017-11-18T10:14:01.867Z,5.49
2017-11-18T10:16:30.117Z,5.41
2017-11-18T10:18:58.360Z,5.24
2017-11-18T10:21:26.607Z,5.34
2017-11-18T10:23:54.847Z,5.40
2017-11-18T10:26:23.131Z,5.12
2017-11-18T10:28:51.377Z,5.20
2017-11-18T10:31:19.619Z,5.38
2017-11-18T10:33:48.635Z,5.31
2017-11-18T10:36:16.879Z,5.80
2017-11-18T10:38:45.130Z,5.82
2017-11-18T10:41:13.377Z,5.49
2017-11-18T10:43:41.989Z,5.75
2017-11-18T10:46:10.281Z,6.19
2017-11-18T10:48:38.625Z,6.10
2017-11-18T10:51:12.897Z,6.11
2017-11-18T10:53:43.811Z,6.07
2017-11-18T10:56:12.879Z,5.94
2017-11-18T10:58:41.199Z,5.94
2017-11-18T11:01:10.232Z,6.10
2017-11-18T11:03:38.577Z,5.73
2017-11-18T11:06:07.631Z,5.75
2017-11-18T11:08:35.926Z,5.88
2017-11-18T11:11:04.268Z,5.93
2017-11-18T11:13:32.601Z,5.76
2017-11-18T11:16:01.603Z,5.73
2017-11-18T11:18:30.059Z,5.78
2017-11-18T11:20:58.334Z,5.63
2017-11-18T11:23:26.641Z,5.85
2017-11-18T11:25:54.898Z,5.79
2017-11-18T11:28:23.553Z,5.96
2017-11-18T11:30:53.511Z,6.60
2017-11-18T11:33:21.842Z,6.35
2017-11-18T11:35:50.143Z,6.04
2017-11-18T11:38:19.214Z,7.52
2017-11-18T11:40:47.514Z,7.89
2017-11-18T11:43:16.528Z,7.78
2017-11-18T11:45:46.626Z,8.70
2017-11-18T11:48:14.907Z,7.29
2017-11-18T11:50:44.020Z,7.03
2017-11-18T11:53:12.324Z,7.50
2017-11-18T11:55:40.651Z,6.29
2017-11-18T11:58:09.758Z,6.28
2017-11-18T12:00:38.864Z,5.84
2017-11-18T12:03:07.128Z,5.80
2017-11-18T12:05:36.364Z,5.70
2017-11-18T12:08:04.655Z,5.69
2017-11-18T12:10:32.957Z,5.65
2017-11-18T12:13:01.193Z,5.71
2017-11-18T12:15:29.432Z,5.61
2017-11-18T12:17:58.435Z,5.49
2017-11-18T12:20:26.684Z,5.62
2017-11-18T12:22:54.920Z,5.61
2017-11-18T12:25:23.181Z,5.85
2017-11-18T12:27:51.424Z,6.00
2017-11-18T12:30:19.686Z,5.84
2017-11-18T12:32:47.939Z,6.16
2017-11-18T12:35:16.176Z,6.09
2017-11-18T12:37:44.421Z,6.73
2017-11-18T12:40:13.430Z,6.70
2017-11-18T12:42:41.678Z,6.62
2017-11-18T12:45:10.688Z,6.53
2017-11-18T12:47:39.708Z,7.51
2017-11-18T12:50:07.943Z,8.67
2017-11-18T12:52:36.957Z,7.88
2017-11-18T12:55:05.196Z,7.66
2017-11-18T12:57:33.442Z,7.42
2017-11-18T13:00:01.678Z,6.63
2017-11-18T13:02:30.683Z,6.86
2017-11-18T13:04:58.938Z,6.49
2017-11-18T13:07:27.950Z,6.69
2017-11-18T13:09:56.545Z,6.14
2017-11-18T13:12:24.783Z,6.32
2017-11-18T13:14:53.790Z,6.01
2017-11-18T13:17:22.035Z,5.77
2017-11-18T13:19:50.296Z,5.88
2017-11-18T13:22:18.523Z,5.84
2017-11-18T13:24:46.763Z,5.72
2017-11-18T13:27:15.011Z,5.73
2017-11-18T13:29:43.268Z,5.46
2017-11-18T13:32:11.508Z,5.42
2017-11-18T13:34:40.523Z,5.41
2017-11-18T13:37:08.755Z,5.39
2017-11-18T13:39:36.996Z,5.49
2017-11-18T13:42:05.241Z,5.35
2017-11-18T13:44:33.489Z,5.53
2017-11-18T13:47:01.738Z,5.46
2017-11-18T13:49:29.985Z,5.34
2017-11-18T13:51:58.229Z,5.45
2017-11-18T13:54:27.227Z,5.71
2017-11-18T13:56:55.483Z,5.17
2017-11-18T13:59:24.488Z,5.11
2017-11-18T14:01:52.735Z,5.00
2017-11-18T14:04:20.980Z,4.92
2017-11-18T14:06:49.235Z,4.91
2017-11-18T14:09:17.476Z,4.87
2017-11-18T14:11:45.724Z,4.82
2017-11-18T14:14:13.963Z,4.90
2017-11-18T14:16:42.215Z,4.84
2017-11-18T14:19:11.240Z,4.70
2017-11-18T14:21:39.483Z,4.80
2017-11-18T14:24:08.495Z,4.69
2017-11-18T14:26:36.742Z,4.66
2017-11-18T14:29:05.759Z,4.69
2017-11-18T14:31:34.008Z,4.68
2017-11-18T14:34:02.267Z,4.64
2017-11-18T14:36:30.508Z,4.63
2017-11-18T14:38:58.755Z,4.65
2017-11-18T14:41:27.770Z,4.61
2017-11-18T14:43:56.012Z,4.58
2017-11-18T14:46:25.018Z,4.59
2017-11-18T14:48:53.253Z,4.54
2017-11-18T14:51:21.498Z,4.54
2017-11-18T14:53:49.732Z,4.56
2017-11-18T14:56:18.751Z,4.58
2017-11-18T14:58:46.992Z,4.56
2017-11-18T15:01:16.002Z,4.49
2017-11-18T15:03:44.249Z,4.55
2017-11-18T15:06:12.516Z,4.49
2017-11-18T15:08:40.772Z,4.49
2017-11-18T15:11:08.993Z,4.51
2017-11-18T15:13:38.016Z,4.49
2017-11-18T15:16:11.817Z,4.45
2017-11-18T15:18:45.589Z,4.44
2017-11-18T15:21:20.136Z,4.44
2017-11-18T15:23:54.717Z,4.45
2017-11-18T15:29:47.991Z,4.39
2017-11-18T15:35:38.085Z,4.41
2017-11-18T15:41:11.464Z,4.39
2017-11-18T15:43:41.475Z,4.35
2017-11-18T15:46:25.353Z,4.34
2017-11-18T15:48:58.964Z,4.36
2017-11-18T15:51:37.103Z,4.33
2017-11-18T15:54:11.573Z,4.32
2017-11-18T15:59:48.223Z,4.35
2017-11-18T16:02:21.059Z,4.41
2017-11-18T16:04:50.622Z,4.45
2017-11-18T16:07:23.081Z,4.27
2017-11-18T16:09:51.330Z,4.25
2017-11-18T16:12:19.576Z,4.30
2017-11-18T16:14:47.828Z,4.34
2017-11-18T16:17:16.826Z,4.26
2017-11-18T16:19:45.065Z,4.27
2017-11-18T16:22:13.312Z,4.27
2017-11-18T16:24:41.561Z,4.23
2017-11-18T16:27:09.801Z,4.23
2017-11-18T16:29:38.828Z,4.18
2017-11-18T16:32:07.067Z,4.18
2017-11-18T16:34:36.067Z,4.21
2017-11-18T16:37:05.079Z,4.24
2017-11-18T16:39:33.312Z,4.19
2017-11-18T16:42:01.552Z,4.22
2017-11-18T16:44:29.793Z,4.12
2017-11-18T16:46:58.807Z,4.17
2017-11-18T16:49:27.056Z,4.14
2017-11-18T16:51:56.089Z,4.17
2017-11-18T16:54:24.318Z,4.16
2017-11-18T16:56:53.324Z,4.17
2017-11-18T16:59:22.318Z,4.13
2017-11-18T17:01:51.331Z,4.18
2017-11-18T17:04:19.580Z,4.16
2017-11-18T17:06:48.577Z,4.14
2017-11-18T17:09:17.596Z,4.15
2017-11-18T17:11:45.838Z,4.09
2017-11-18T17:14:14.845Z,4.12
2017-11-18T17:16:43.080Z,4.06
2017-11-18T17:19:11.343Z,4.09
2017-11-18T17:21:39.584Z,4.05
2017-11-18T17:24:07.827Z,4.09
2017-11-18T17:26:36.834Z,4.04
2017-11-18T17:29:05.846Z,4.03
2017-11-18T17:31:34.086Z,4.08
2017-11-18T17:34:03.096Z,4.09
2017-11-18T17:36:32.105Z,4.11
2017-11-18T17:39:00.343Z,4.13
2017-11-18T17:41:28.592Z,4.13
2017-11-18T17:43:56.830Z,4.10
2017-11-18T17:46:25.083Z,4.11
2017-11-18T17:48:54.093Z,4.08
2017-11-18T17:51:22.339Z,4.07
2017-11-18T17:53:51.405Z,4.06
2017-11-18T17:56:19.652Z,4.10
2017-11-18T17:58:47.900Z,4.10
2017-11-18T18:01:16.911Z,4.13
2017-11-18T18:03:45.156Z,4.13
2017-11-18T18:06:14.179Z,4.12
2017-11-18T18:08:42.411Z,4.12
2017-11-18T18:11:10.646Z,4.19
2017-11-18T18:13:38.899Z,4.19
2017-11-18T18:16:07.261Z,4.21
2017-11-18T18:18:36.279Z,4.25
2017-11-18T18:21:04.513Z,4.25
2017-11-18T18:23:33.531Z,4.26
2017-11-18T18:26:01.775Z,4.23
2017-11-18T18:28:30.064Z,4.21
2017-11-18T18:30:59.208Z,4.21
2017-11-18T18:33:27.522Z,4.24
2017-11-18T18:36:05.881Z,4.23
2017-11-18T18:38:38.827Z,4.30
2017-11-18T18:44:17.955Z,4.30
2017-11-18T18:47:02.327Z,4.29
2017-11-18T18:57:41.712Z,4.31
2017-11-18T19:00:10.778Z,4.31
2017-11-18T19:02:40.230Z,4.31
2017-11-18T19:05:08.656Z,4.30
2017-11-18T19:07:38.653Z,4.29
2017-11-18T19:10:06.971Z,4.30
2017-11-18T19:12:40.857Z,4.26
2017-11-18T19:15:09.166Z,4.26
2017-11-18T19:17:37.407Z,4.29
2017-11-18T19:20:08.783Z,4.29
2017-11-18T19:22:37.117Z,4.30
2017-11-18T19:25:05.427Z,4.30
2017-11-18T19:27:37.288Z,4.28
2017-11-18T19:30:05.524Z,4.26
2017-11-18T19:32:33.950Z,4.24
2017-11-18T19:35:02.213Z,4.26
2017-11-18T19:37:30.480Z,4.23
2017-11-18T19:39:58.716Z,4.14
2017-11-18T19:42:26.969Z,4.02
2017-11-18T19:44:55.990Z,3.97
2017-11-18T19:50:12.679Z,4.03
2017-11-18T19:52:40.929Z,4.05
2017-11-18T19:55:09.191Z,4.08
2017-11-18T19:57:39.010Z,4.09
2017-11-18T20:00:07.277Z,4.09
2017-11-18T20:02:37.602Z,4.09
2017-11-18T20:05:06.627Z,4.09
2017-11-18T20:07:43.753Z,4.06
2017-11-18T20:10:12.818Z,4.05
2017-11-18T20:12:41.873Z,4.06
2017-11-18T20:15:10.200Z,4.06
2017-11-18T20:17:38.532Z,4.08
2017-11-18T20:20:06.869Z,4.05
2017-11-18T20:22:35.174Z,4.02
2017-11-18T20:25:03.505Z,4.01
2017-11-18T20:27:51.581Z,4.02
2017-11-18T20:30:20.719Z,3.97
2017-11-18T20:32:49.010Z,4.01
2017-11-18T20:35:24.310Z,4.01
2017-11-18T20:37:56.170Z,3.96
2017-11-18T20:40:24.514Z,3.99
2017-11-18T20:42:52.785Z,3.94
2017-11-18T20:45:27.018Z,3.94
2017-11-18T20:47:55.291Z,3.94
2017-11-18T20:50:23.598Z,3.86
2017-11-18T20:52:51.929Z,3.91
2017-11-18T20:55:20.236Z,3.89
2017-11-18T20:57:48.543Z,3.92
2017-11-18T21:00:18.011Z,3.88
2017-11-18T21:02:46.325Z,3.91
2017-11-18T21:05:14.683Z,3.89
2017-11-18T21:07:43.001Z,3.91
2017-11-18T21:10:12.068Z,3.93
2017-11-18T21:12:40.404Z,3.95
2017-11-18T21:15:08.660Z,3.93
2017-11-18T21:17:37.667Z,3.91
2017-11-18T21:20:05.923Z,3.94
2017-11-18T21:22:34.926Z,3.90
2017-11-18T21:25:03.173Z,3.88
2017-11-18T21:27:32.142Z,3.92
2017-11-18T21:30:00.376Z,3.86
2017-11-18T21:32:28.669Z,3.86
2017-11-18T21:34:56.921Z,3.86
2017-11-18T21:37:25.168Z,3.85
2017-11-18T21:39:53.412Z,3.85
2017-11-18T21:42:21.674Z,3.88
2017-11-18T21:44:49.974Z,3.87
2017-11-18T21:47:18.230Z,3.84
2017-11-18T21:49:46.532Z,3.85
2017-11-18T21:52:14.775Z,3.85
2017-11-18T21:54:59.874Z,3.88
2017-11-18T21:57:28.887Z,3.84
2017-11-18T21:59:57.356Z,3.85
2017-11-18T22:02:25.598Z,3.86
2017-11-18T22:04:53.842Z,3.85
2017-11-18T22:07:22.092Z,3.86
2017-11-18T22:09:50.371Z,3.85
2017-11-18T22:12:18.607Z,3.83
2017-11-18T22:14:46.873Z,3.86
2017-11-18T22:17:15.093Z,3.85
2017-11-18T22:19:43.351Z,3.88
2017-11-18T22:22:11.590Z,3.82
2017-11-18T22:24:39.879Z,3.85
2017-11-18T22:27:08.127Z,3.84
2017-11-18T22:29:39.156Z,3.82
2017-11-18T22:32:14.392Z,3.85
2017-11-18T22:34:43.408Z,3.86
2017-11-18T22:37:11.659Z,3.85
2017-11-18T22:39:40.698Z,3.87
2017-11-18T22:42:08.922Z,3.89
2017-11-18T22:44:37.997Z,3.90
2017-11-18T22:47:06.260Z,3.92
2017-11-18T22:49:34.591Z,3.92
2017-11-18T22:52:02.903Z,3.87
2017-11-18T22:54:31.208Z,3.88
2017-11-18T22:56:59.517Z,3.89
2017-11-18T22:59:27.797Z,3.90
2017-11-18T23:01:56.043Z,3.90
2017-11-18T23:04:25.065Z,3.88
2017-11-18T23:06:54.821Z,3.91
2017-11-18T23:09:23.219Z,3.98
2017-11-18T23:11:52.248Z,3.95
2017-11-18T23:14:20.647Z,3.96
2017-11-18T23:16:48.883Z,3.94
2017-11-18T23:19:18.033Z,3.97
2017-11-18T23:24:20.741Z,4.03
2017-11-18T23:26:52.279Z,3.98
2017-11-18T23:29:20.552Z,3.92
2017-11-18T23:31:48.821Z,3.83
2017-11-18T23:34:17.070Z,3.78
2017-11-18T23:36:45.329Z,3.71
2017-11-18T23:39:14.373Z,3.65
2017-11-18T23:41:42.634Z,3.63
2017-11-18T23:44:10.913Z,3.63
2017-11-18T23:46:39.206Z,3.58
2017-11-18T23:49:07.466Z,3.60
2017-11-18T23:51:35.730Z,3.57
2017-11-18T23:54:03.980Z,3.56
2017-11-18T23:56:33.111Z,3.51
2017-11-18T23:59:01.387Z,3.59
